Overview Statistics Trail Chart Weather Telemetry Raw packets
 

This is the latest recevied weather packets stored in our database for station/object WA6OOO. If no packets are shown the sender has not sent any weather packets the latest 10 day(s).

<< 104 105 106 107 108 109 110 >>
Time Temp. Humidity Pressure Rain* Wind** Luminosity Snow
1787887302 25° C 79% 1013 hPa 0 mm - 0 W/m² -
1787886996 24.44° C 81% 1012.9 hPa 0 mm - 0 W/m² -
1787886696 24.44° C 81% 1013.1 hPa 0 mm - 0 W/m² -
1787886391 24.44° C 81% 1012.8 hPa 0 mm - 0 W/m² -
1787886087 24.44° C 81% 1012.6 hPa 0 mm - 0 W/m² -
1787885785 25° C 79% 1012.6 hPa 0 mm - 0 W/m² -
1787885478 25.56° C 78% 1012.7 hPa 0 mm - 0 W/m² -
1787885172 26.11° C 75% 1012.4 hPa 0 mm - 0 W/m² -
1787884866 26.67° C 70% 1012.5 hPa 0 mm - 0 W/m² -
1787884561 27.22° C 69% 1012.3 hPa 0 mm - 0 W/m² -
1787884258 27.22° C 68% 1012.4 hPa 0 mm - 0 W/m² -
1787883953 27.22° C 66% 1012.3 hPa 0 mm - 1 W/m² -
1787883653 27.22° C 66% 1012.2 hPa 0 mm - 1 W/m² -
1787883349 27.22° C 68% 1012.3 hPa 0 mm - 3 W/m² -
1787883048 27.22° C 69% 1012.2 hPa 0 mm - 7 W/m² -
1787882744 26.67° C 70% 1012.1 hPa 0 mm - 11 W/m² -
1787882440 26.67° C 70% 1012.2 hPa 0 mm - 16 W/m² -
1787882140 26.67° C 72% 1012.4 hPa 0 mm - 17 W/m² -
1787881835 26.67° C 73% 1012.3 hPa 0 mm - 17 W/m² -
1787881530 27.22° C 72% 1012.7 hPa 0 mm - 21 W/m² -
1787881226 27.22° C 71% 1012.8 hPa 0 mm - 31 W/m² -
1787880922 27.22° C 71% 1012.8 hPa 0 mm - 34 W/m² -
1787880621 27.78° C 71% 1012.9 hPa 0 mm - 34 W/m² -
1787880320 27.78° C 70% 1012.9 hPa 0 mm - 41 W/m² -
1787880015 27.78° C 69% 1012.9 hPa 0 mm - 55 W/m² -

* Rain latest hour (hover to see other rain measurements)
** Current wind speed in m/s (hover to see current wind gust speed)